sensor_id;sensor_type;location;lat;lon;timestamp;P1;durP1;ratioP1;P2;durP2;ratioP2
22289;SDS011;11313;50.116;8.424;2022-07-29T00:24:43;1.20;;;0.70;;
22289;SDS011;11313;50.116;8.424;2022-07-29T00:27:08;1.17;;;0.70;;
22289;SDS011;11313;50.116;8.424;2022-07-29T00:29:34;1.23;;;0.80;;
22289;SDS011;11313;50.116;8.424;2022-07-29T00:31:59;1.95;;;0.98;;
22289;SDS011;11313;50.116;8.424;2022-07-29T00:34:25;1.35;;;0.70;;
22289;SDS011;11313;50.116;8.424;2022-07-29T00:37:09;1.40;;;0.80;;
22289;SDS011;11313;50.116;8.424;2022-07-29T00:39:35;1.15;;;0.70;;
22289;SDS011;11313;50.116;8.424;2022-07-29T00:42:02;1.90;;;0.70;;
22289;SDS011;11313;50.116;8.424;2022-07-29T00:44:29;1.52;;;0.80;;
22289;SDS011;11313;50.116;8.424;2022-07-29T00:46:54;1.15;;;0.90;;
22289;SDS011;11313;50.116;8.424;2022-07-29T00:49:20;1.98;;;0.98;;
22289;SDS011;11313;50.116;8.424;2022-07-29T00:51:45;1.13;;;1.00;;
22289;SDS011;11313;50.116;8.424;2022-07-29T00:54:12;2.05;;;0.90;;
22289;SDS011;11313;50.116;8.424;2022-07-29T00:56:37;2.00;;;1.00;;
22289;SDS011;11313;50.116;8.424;2022-07-29T00:59:03;2.10;;;1.05;;
22289;SDS011;11313;50.116;8.424;2022-07-29T01:01:28;2.42;;;1.00;;
22289;SDS011;11313;50.116;8.424;2022-07-29T01:03:54;1.20;;;1.10;;
22289;SDS011;11313;50.116;8.424;2022-07-29T01:06:19;2.15;;;1.10;;
22289;SDS011;11313;50.116;8.424;2022-07-29T01:08:46;1.23;;;0.80;;
22289;SDS011;11313;50.116;8.424;2022-07-29T01:11:13;1.63;;;1.05;;
22289;SDS011;11313;50.116;8.424;2022-07-29T01:13:41;1.58;;;1.02;;
22289;SDS011;11313;50.116;8.424;2022-07-29T01:16:10;1.10;;;0.90;;
22289;SDS011;11313;50.116;8.424;2022-07-29T01:18:51;1.80;;;0.95;;
22289;SDS011;11313;50.116;8.424;2022-07-29T01:21:24;1.33;;;0.90;;
22289;SDS011;11313;50.116;8.424;2022-07-29T01:24:11;1.05;;;0.80;;
22289;SDS011;11313;50.116;8.424;2022-07-29T01:26:47;1.30;;;1.00;;
22289;SDS011;11313;50.116;8.424;2022-07-29T01:32:02;1.23;;;1.00;;
22289;SDS011;11313;50.116;8.424;2022-07-29T01:34:40;0.93;;;0.77;;
22289;SDS011;11313;50.116;8.424;2022-07-29T01:37:15;1.10;;;0.90;;
22289;SDS011;11313;50.116;8.424;2022-07-29T01:39:43;1.50;;;0.93;;
22289;SDS011;11313;50.116;8.424;2022-07-29T01:42:14;1.10;;;0.82;;
22289;SDS011;11313;50.116;8.424;2022-07-29T01:45:02;1.58;;;1.05;;
22289;SDS011;11313;50.116;8.424;2022-07-29T01:47:41;0.80;;;0.80;;
22289;SDS011;11313;50.116;8.424;2022-07-29T01:50:12;1.15;;;0.75;;
22289;SDS011;11313;50.116;8.424;2022-07-29T01:52:54;0.55;;;0.55;;
22289;SDS011;11313;50.116;8.424;2022-07-29T01:55:25;2.13;;;0.70;;
22289;SDS011;11313;50.116;8.424;2022-07-29T01:57:54;1.10;;;0.90;;
22289;SDS011;11313;50.116;8.424;2022-07-29T02:00:22;1.63;;;1.02;;
22289;SDS011;11313;50.116;8.424;2022-07-29T02:02:48;2.30;;;0.88;;
22289;SDS011;11313;50.116;8.424;2022-07-29T02:05:15;1.08;;;0.85;;
22289;SDS011;11313;50.116;8.424;2022-07-29T02:07:43;1.30;;;0.90;;
22289;SDS011;11313;50.116;8.424;2022-07-29T02:10:11;1.17;;;1.00;;
22289;SDS011;11313;50.116;8.424;2022-07-29T02:12:38;1.25;;;0.80;;
22289;SDS011;11313;50.116;8.424;2022-07-29T02:15:05;1.33;;;0.85;;
22289;SDS011;11313;50.116;8.424;2022-07-29T02:17:33;1.10;;;0.80;;
22289;SDS011;11313;50.116;8.424;2022-07-29T02:20:05;1.60;;;0.98;;
22289;SDS011;11313;50.116;8.424;2022-07-29T02:22:33;1.58;;;0.85;;
22289;SDS011;11313;50.116;8.424;2022-07-29T02:25:02;0.85;;;0.80;;
22289;SDS011;11313;50.116;8.424;2022-07-29T02:27:28;1.80;;;1.00;;
22289;SDS011;11313;50.116;8.424;2022-07-29T02:29:54;1.35;;;0.90;;
22289;SDS011;11313;50.116;8.424;2022-07-29T02:32:23;0.90;;;0.77;;
22289;SDS011;11313;50.116;8.424;2022-07-29T02:34:50;6.50;;;0.80;;
22289;SDS011;11313;50.116;8.424;2022-07-29T02:37:17;2.38;;;0.80;;
22289;SDS011;11313;50.116;8.424;2022-07-29T02:39:43;0.95;;;0.80;;
22289;SDS011;11313;50.116;8.424;2022-07-29T02:42:12;0.93;;;0.85;;
22289;SDS011;11313;50.116;8.424;2022-07-29T02:44:40;1.85;;;0.73;;
22289;SDS011;11313;50.116;8.424;2022-07-29T02:47:12;0.90;;;0.80;;
22289;SDS011;11313;50.116;8.424;2022-07-29T02:50:05;1.17;;;1.00;;
22289;SDS011;11313;50.116;8.424;2022-07-29T02:52:40;1.92;;;0.98;;
22289;SDS011;11313;50.116;8.424;2022-07-29T02:58:03;1.23;;;0.80;;
22289;SDS011;11313;50.116;8.424;2022-07-29T03:00:31;1.92;;;1.05;;
22289;SDS011;11313;50.116;8.424;2022-07-29T03:05:28;2.95;;;1.00;;
22289;SDS011;11313;50.116;8.424;2022-07-29T03:07:57;1.98;;;0.80;;
22289;SDS011;11313;50.116;8.424;2022-07-29T03:10:25;1.10;;;0.80;;
22289;SDS011;11313;50.116;8.424;2022-07-29T03:12:51;1.88;;;1.10;;
22289;SDS011;11313;50.116;8.424;2022-07-29T03:15:18;0.98;;;0.90;;
22289;SDS011;11313;50.116;8.424;2022-07-29T03:17:44;1.00;;;0.90;;
22289;SDS011;11313;50.116;8.424;2022-07-29T03:20:11;1.17;;;0.70;;
22289;SDS011;11313;50.116;8.424;2022-07-29T03:22:39;2.05;;;0.80;;
22289;SDS011;11313;50.116;8.424;2022-07-29T03:27:35;1.65;;;1.00;;
22289;SDS011;11313;50.116;8.424;2022-07-29T03:30:01;2.38;;;1.10;;
22289;SDS011;11313;50.116;8.424;2022-07-29T03:32:26;1.75;;;0.88;;
22289;SDS011;11313;50.116;8.424;2022-07-29T03:34:52;2.33;;;0.77;;
22289;SDS011;11313;50.116;8.424;2022-07-29T03:37:17;1.35;;;0.98;;
22289;SDS011;11313;50.116;8.424;2022-07-29T03:39:43;0.85;;;0.85;;
22289;SDS011;11313;50.116;8.424;2022-07-29T03:42:11;1.35;;;0.80;;
22289;SDS011;11313;50.116;8.424;2022-07-29T03:44:40;1.10;;;1.00;;
22289;SDS011;11313;50.116;8.424;2022-07-29T03:47:07;1.08;;;0.80;;
22289;SDS011;11313;50.116;8.424;2022-07-29T03:49:36;1.50;;;0.95;;
22289;SDS011;11313;50.116;8.424;2022-07-29T03:52:03;1.70;;;1.00;;
22289;SDS011;11313;50.116;8.424;2022-07-29T03:54:29;2.13;;;0.82;;
22289;SDS011;11313;50.116;8.424;2022-07-29T03:56:55;1.52;;;1.00;;
22289;SDS011;11313;50.116;8.424;2022-07-29T03:59:25;1.20;;;0.90;;
22289;SDS011;11313;50.116;8.424;2022-07-29T04:01:51;1.20;;;0.80;;
22289;SDS011;11313;50.116;8.424;2022-07-29T04:04:18;1.30;;;0.80;;
22289;SDS011;11313;50.116;8.424;2022-07-29T04:06:45;1.02;;;0.75;;
22289;SDS011;11313;50.116;8.424;2022-07-29T04:09:11;1.63;;;0.65;;
22289;SDS011;11313;50.116;8.424;2022-07-29T04:11:38;0.85;;;0.77;;
22289;SDS011;11313;50.116;8.424;2022-07-29T04:14:04;1.20;;;0.80;;
22289;SDS011;11313;50.116;8.424;2022-07-29T04:16:30;1.42;;;0.80;;
22289;SDS011;11313;50.116;8.424;2022-07-29T04:18:56;1.05;;;0.75;;
22289;SDS011;11313;50.116;8.424;2022-07-29T04:21:22;1.50;;;0.80;;
22289;SDS011;11313;50.116;8.424;2022-07-29T04:23:47;0.98;;;0.77;;
22289;SDS011;11313;50.116;8.424;2022-07-29T04:26:16;1.33;;;0.80;;
22289;SDS011;11313;50.116;8.424;2022-07-29T04:28:42;0.93;;;0.82;;
22289;SDS011;11313;50.116;8.424;2022-07-29T04:31:08;0.95;;;0.65;;
22289;SDS011;11313;50.116;8.424;2022-07-29T04:33:34;1.33;;;0.60;;
22289;SDS011;11313;50.116;8.424;2022-07-29T04:36:00;1.70;;;1.00;;
22289;SDS011;11313;50.116;8.424;2022-07-29T04:38:25;1.08;;;0.70;;
22289;SDS011;11313;50.116;8.424;2022-07-29T04:40:51;0.80;;;0.80;;
22289;SDS011;11313;50.116;8.424;2022-07-29T04:43:16;0.60;;;0.52;;
22289;SDS011;11313;50.116;8.424;2022-07-29T04:45:42;1.42;;;0.65;;
22289;SDS011;11313;50.116;8.424;2022-07-29T04:48:08;1.15;;;0.80;;
22289;SDS011;11313;50.116;8.424;2022-07-29T04:50:33;1.02;;;0.90;;
22289;SDS011;11313;50.116;8.424;2022-07-29T04:52:59;3.05;;;1.15;;
22289;SDS011;11313;50.116;8.424;2022-07-29T04:55:25;2.38;;;1.05;;
22289;SDS011;11313;50.116;8.424;2022-07-29T04:57:50;3.72;;;1.13;;
22289;SDS011;11313;50.116;8.424;2022-07-29T05:00:16;3.30;;;1.13;;
22289;SDS011;11313;50.116;8.424;2022-07-29T05:02:41;7.22;;;1.08;;
22289;SDS011;11313;50.116;8.424;2022-07-29T05:05:08;4.38;;;1.63;;
22289;SDS011;11313;50.116;8.424;2022-07-29T05:07:34;3.58;;;1.30;;
22289;SDS011;11313;50.116;8.424;2022-07-29T05:09:59;3.53;;;1.20;;
22289;SDS011;11313;50.116;8.424;2022-07-29T05:12:25;4.85;;;1.50;;
22289;SDS011;11313;50.116;8.424;2022-07-29T05:14:51;3.22;;;1.35;;
22289;SDS011;11313;50.116;8.424;2022-07-29T05:17:16;5.05;;;1.40;;
22289;SDS011;11313;50.116;8.424;2022-07-29T05:19:42;4.22;;;1.40;;
22289;SDS011;11313;50.116;8.424;2022-07-29T05:22:08;5.35;;;1.25;;
22289;SDS011;11313;50.116;8.424;2022-07-29T05:24:33;2.42;;;1.30;;
22289;SDS011;11313;50.116;8.424;2022-07-29T05:26:59;5.47;;;1.50;;
22289;SDS011;11313;50.116;8.424;2022-07-29T05:29:24;5.18;;;2.05;;
22289;SDS011;11313;50.116;8.424;2022-07-29T05:31:51;5.75;;;1.95;;
22289;SDS011;11313;50.116;8.424;2022-07-29T05:34:17;5.20;;;1.60;;
22289;SDS011;11313;50.116;8.424;2022-07-29T05:36:46;6.07;;;2.03;;
22289;SDS011;11313;50.116;8.424;2022-07-29T05:39:17;5.88;;;1.92;;
22289;SDS011;11313;50.116;8.424;2022-07-29T05:41:43;5.18;;;1.60;;
22289;SDS011;11313;50.116;8.424;2022-07-29T05:44:09;3.03;;;1.67;;
22289;SDS011;11313;50.116;8.424;2022-07-29T05:46:59;4.57;;;1.70;;
22289;SDS011;11313;50.116;8.424;2022-07-29T05:49:55;7.03;;;1.90;;
22289;SDS011;11313;50.116;8.424;2022-07-29T05:52:43;3.42;;;1.80;;
22289;SDS011;11313;50.116;8.424;2022-07-29T05:55:34;2.88;;;1.70;;
22289;SDS011;11313;50.116;8.424;2022-07-29T06:04:50;6.95;;;1.67;;
22289;SDS011;11313;50.116;8.424;2022-07-29T06:13:28;5.50;;;1.73;;
22289;SDS011;11313;50.116;8.424;2022-07-29T06:16:36;3.22;;;1.65;;
22289;SDS011;11313;50.116;8.424;2022-07-29T06:22:14;3.83;;;1.40;;
22289;SDS011;11313;50.116;8.424;2022-07-29T06:25:03;2.30;;;1.48;;
22289;SDS011;11313;50.116;8.424;2022-07-29T06:30:31;2.55;;;1.67;;
22289;SDS011;11313;50.116;8.424;2022-07-29T06:33:18;2.90;;;1.50;;
22289;SDS011;11313;50.116;8.424;2022-07-29T06:35:53;2.10;;;1.42;;
22289;SDS011;11313;50.116;8.424;2022-07-29T06:38:39;3.85;;;1.50;;
22289;SDS011;11313;50.116;8.424;2022-07-29T06:41:30;3.20;;;1.40;;
22289;SDS011;11313;50.116;8.424;2022-07-29T06:44:31;3.42;;;1.75;;
22289;SDS011;11313;50.116;8.424;2022-07-29T06:47:06;3.40;;;1.60;;
22289;SDS011;11313;50.116;8.424;2022-07-29T06:49:37;4.85;;;1.50;;
22289;SDS011;11313;50.116;8.424;2022-07-29T06:52:20;4.18;;;1.67;;
22289;SDS011;11313;50.116;8.424;2022-07-29T06:55:09;3.92;;;1.58;;
22289;SDS011;11313;50.116;8.424;2022-07-29T06:57:45;3.67;;;1.50;;
22289;SDS011;11313;50.116;8.424;2022-07-29T07:00:29;3.03;;;1.52;;
22289;SDS011;11313;50.116;8.424;2022-07-29T07:02:59;3.38;;;1.42;;
22289;SDS011;11313;50.116;8.424;2022-07-29T07:05:34;3.90;;;1.50;;
22289;SDS011;11313;50.116;8.424;2022-07-29T07:08:05;3.53;;;1.60;;
22289;SDS011;11313;50.116;8.424;2022-07-29T07:10:33;2.50;;;1.50;;
22289;SDS011;11313;50.116;8.424;2022-07-29T11:41:50;4.35;;;1.70;;
22289;SDS011;11313;50.116;8.424;2022-07-29T11:44:15;3.28;;;1.60;;
22289;SDS011;11313;50.116;8.424;2022-07-29T11:46:49;2.10;;;1.60;;
22289;SDS011;11313;50.116;8.424;2022-07-29T11:49:19;1.80;;;1.42;;
22289;SDS011;11313;50.116;8.424;2022-07-29T11:51:55;2.35;;;1.65;;
22289;SDS011;11313;50.116;8.424;2022-07-29T11:54:32;2.33;;;1.40;;
22289;SDS011;11313;50.116;8.424;2022-07-29T11:56:59;2.28;;;1.65;;
22289;SDS011;11313;50.116;8.424;2022-07-29T11:59:25;2.38;;;1.55;;
22289;SDS011;11313;50.116;8.424;2022-07-29T12:01:52;2.95;;;1.70;;
22289;SDS011;11313;50.116;8.424;2022-07-29T12:04:18;2.55;;;1.60;;
22289;SDS011;11313;50.116;8.424;2022-07-29T12:06:48;2.05;;;1.63;;
22289;SDS011;11313;50.116;8.424;2022-07-29T12:09:15;3.28;;;1.80;;
22289;SDS011;11313;50.116;8.424;2022-07-29T12:11:42;2.17;;;1.58;;
22289;SDS011;11313;50.116;8.424;2022-07-29T12:14:08;4.65;;;1.60;;
22289;SDS011;11313;50.116;8.424;2022-07-29T12:16:37;1.88;;;1.40;;
22289;SDS011;11313;50.116;8.424;2022-07-29T12:19:03;2.50;;;1.63;;
22289;SDS011;11313;50.116;8.424;2022-07-29T12:21:42;1.88;;;1.52;;
22289;SDS011;11313;50.116;8.424;2022-07-29T12:24:15;1.80;;;1.50;;
22289;SDS011;11313;50.116;8.424;2022-07-29T12:26:51;2.45;;;1.63;;
22289;SDS011;11313;50.116;8.424;2022-07-29T12:29:17;2.70;;;1.77;;
22289;SDS011;11313;50.116;8.424;2022-07-29T12:31:43;3.08;;;1.80;;
22289;SDS011;11313;50.116;8.424;2022-07-29T12:34:13;3.50;;;1.60;;
22289;SDS011;11313;50.116;8.424;2022-07-29T12:36:40;3.40;;;1.85;;
22289;SDS011;11313;50.116;8.424;2022-07-29T12:39:07;3.35;;;1.58;;
22289;SDS011;11313;50.116;8.424;2022-07-29T12:41:34;19.05;;;1.83;;
22289;SDS011;11313;50.116;8.424;2022-07-29T12:44:00;2.20;;;1.65;;
22289;SDS011;11313;50.116;8.424;2022-07-29T12:46:26;2.38;;;1.80;;
22289;SDS011;11313;50.116;8.424;2022-07-29T12:48:52;1.90;;;1.50;;
22289;SDS011;11313;50.116;8.424;2022-07-29T12:51:31;2.38;;;1.50;;
22289;SDS011;11313;50.116;8.424;2022-07-29T12:54:05;1.90;;;1.60;;
22289;SDS011;11313;50.116;8.424;2022-07-29T12:56:35;44.67;;;2.17;;
22289;SDS011;11313;50.116;8.424;2022-07-29T12:59:18;6.97;;;1.80;;
22289;SDS011;11313;50.116;8.424;2022-07-29T13:01:49;2.58;;;1.75;;
22289;SDS011;11313;50.116;8.424;2022-07-29T13:04:26;3.05;;;1.90;;
22289;SDS011;11313;50.116;8.424;2022-07-29T13:07:05;2.92;;;1.60;;
22289;SDS011;11313;50.116;8.424;2022-07-29T13:09:44;2.92;;;1.80;;
22289;SDS011;11313;50.116;8.424;2022-07-29T13:12:11;5.07;;;2.00;;
22289;SDS011;11313;50.116;8.424;2022-07-29T13:14:42;15.77;;;2.05;;
22289;SDS011;11313;50.116;8.424;2022-07-29T13:17:10;2.10;;;1.52;;
22289;SDS011;11313;50.116;8.424;2022-07-29T13:22:18;3.85;;;1.83;;
22289;SDS011;11313;50.116;8.424;2022-07-29T13:27:14;1.98;;;1.55;;
22289;SDS011;11313;50.116;8.424;2022-07-29T13:29:41;2.30;;;1.70;;
22289;SDS011;11313;50.116;8.424;2022-07-29T13:32:06;2.40;;;1.60;;
22289;SDS011;11313;50.116;8.424;2022-07-29T13:34:32;2.25;;;1.70;;
22289;SDS011;11313;50.116;8.424;2022-07-29T13:36:58;3.38;;;1.80;;
22289;SDS011;11313;50.116;8.424;2022-07-29T13:39:23;2.20;;;1.63;;
22289;SDS011;11313;50.116;8.424;2022-07-29T13:41:49;4.18;;;1.70;;
22289;SDS011;11313;50.116;8.424;2022-07-29T13:44:14;2.50;;;1.63;;
22289;SDS011;11313;50.116;8.424;2022-07-29T13:46:40;2.28;;;1.73;;
22289;SDS011;11313;50.116;8.424;2022-07-29T13:49:06;3.22;;;1.90;;
22289;SDS011;11313;50.116;8.424;2022-07-29T13:51:31;2.28;;;1.70;;
22289;SDS011;11313;50.116;8.424;2022-07-29T13:53:57;2.33;;;1.80;;
22289;SDS011;11313;50.116;8.424;2022-07-29T13:56:22;4.03;;;1.70;;
22289;SDS011;11313;50.116;8.424;2022-07-29T13:58:48;2.10;;;1.70;;
22289;SDS011;11313;50.116;8.424;2022-07-29T14:01:14;1.60;;;1.50;;
22289;SDS011;11313;50.116;8.424;2022-07-29T14:03:40;2.28;;;1.55;;
22289;SDS011;11313;50.116;8.424;2022-07-29T14:06:07;2.35;;;1.55;;
22289;SDS011;11313;50.116;8.424;2022-07-29T14:08:33;3.92;;;1.75;;
22289;SDS011;11313;50.116;8.424;2022-07-29T14:10:59;2.13;;;1.75;;
22289;SDS011;11313;50.116;8.424;2022-07-29T14:13:25;2.40;;;1.77;;
22289;SDS011;11313;50.116;8.424;2022-07-29T14:15:50;2.28;;;1.70;;
22289;SDS011;11313;50.116;8.424;2022-07-29T14:18:16;2.20;;;1.80;;
22289;SDS011;11313;50.116;8.424;2022-07-29T14:20:42;3.67;;;1.90;;
22289;SDS011;11313;50.116;8.424;2022-07-29T14:23:07;2.60;;;1.90;;
22289;SDS011;11313;50.116;8.424;2022-07-29T14:25:33;3.08;;;1.90;;
22289;SDS011;11313;50.116;8.424;2022-07-29T14:27:59;2.40;;;1.70;;
22289;SDS011;11313;50.116;8.424;2022-07-29T14:30:24;3.80;;;2.00;;
22289;SDS011;11313;50.116;8.424;2022-07-29T14:32:50;3.00;;;2.10;;
22289;SDS011;11313;50.116;8.424;2022-07-29T14:35:15;2.78;;;1.80;;
22289;SDS011;11313;50.116;8.424;2022-07-29T14:37:42;2.50;;;1.83;;
22289;SDS011;11313;50.116;8.424;2022-07-29T14:40:08;3.70;;;2.30;;
22289;SDS011;11313;50.116;8.424;2022-07-29T14:42:35;3.42;;;2.17;;
22289;SDS011;11313;50.116;8.424;2022-07-29T14:45:02;3.78;;;2.20;;
22289;SDS011;11313;50.116;8.424;2022-07-29T14:47:29;3.88;;;2.13;;
22289;SDS011;11313;50.116;8.424;2022-07-29T14:49:55;4.32;;;2.13;;
22289;SDS011;11313;50.116;8.424;2022-07-29T14:52:20;3.75;;;2.15;;
22289;SDS011;11313;50.116;8.424;2022-07-29T14:54:46;5.35;;;2.03;;
22289;SDS011;11313;50.116;8.424;2022-07-29T14:57:11;1.98;;;1.70;;
22289;SDS011;11313;50.116;8.424;2022-07-29T14:59:37;3.53;;;2.10;;
22289;SDS011;11313;50.116;8.424;2022-07-29T15:02:03;3.22;;;2.10;;
22289;SDS011;11313;50.116;8.424;2022-07-29T15:04:28;2.45;;;1.88;;
22289;SDS011;11313;50.116;8.424;2022-07-29T15:06:54;5.05;;;1.88;;
22289;SDS011;11313;50.116;8.424;2022-07-29T15:09:19;9.20;;;1.90;;
22289;SDS011;11313;50.116;8.424;2022-07-29T15:11:45;3.90;;;2.00;;
22289;SDS011;11313;50.116;8.424;2022-07-29T15:14:10;4.47;;;2.10;;
22289;SDS011;11313;50.116;8.424;2022-07-29T15:16:36;4.78;;;2.13;;
22289;SDS011;11313;50.116;8.424;2022-07-29T15:19:04;5.55;;;1.98;;
22289;SDS011;11313;50.116;8.424;2022-07-29T15:21:30;2.72;;;2.00;;
22289;SDS011;11313;50.116;8.424;2022-07-29T15:23:56;2.33;;;1.67;;
22289;SDS011;11313;50.116;8.424;2022-07-29T15:26:21;5.95;;;2.03;;
22289;SDS011;11313;50.116;8.424;2022-07-29T15:28:47;3.33;;;2.33;;
22289;SDS011;11313;50.116;8.424;2022-07-29T15:31:13;3.47;;;2.30;;
22289;SDS011;11313;50.116;8.424;2022-07-29T15:33:38;3.45;;;2.00;;
22289;SDS011;11313;50.116;8.424;2022-07-29T15:36:04;5.60;;;2.35;;
22289;SDS011;11313;50.116;8.424;2022-07-29T15:38:30;3.85;;;1.90;;
22289;SDS011;11313;50.116;8.424;2022-07-29T15:40:56;4.90;;;2.35;;
22289;SDS011;11313;50.116;8.424;2022-07-29T15:43:22;9.70;;;2.28;;
22289;SDS011;11313;50.116;8.424;2022-07-29T15:45:48;3.42;;;2.10;;
22289;SDS011;11313;50.116;8.424;2022-07-29T15:48:33;3.13;;;2.03;;
22289;SDS011;11313;50.116;8.424;2022-07-29T15:51:02;3.38;;;1.98;;
22289;SDS011;11313;50.116;8.424;2022-07-29T15:53:27;3.92;;;2.05;;
22289;SDS011;11313;50.116;8.424;2022-07-29T15:55:53;3.67;;;2.05;;
22289;SDS011;11313;50.116;8.424;2022-07-29T15:58:19;3.45;;;2.30;;
22289;SDS011;11313;50.116;8.424;2022-07-29T16:00:45;3.75;;;2.00;;
22289;SDS011;11313;50.116;8.424;2022-07-29T16:03:10;2.70;;;2.03;;
22289;SDS011;11313;50.116;8.424;2022-07-29T16:05:36;2.80;;;1.92;;
22289;SDS011;11313;50.116;8.424;2022-07-29T16:08:02;4.57;;;2.20;;
22289;SDS011;11313;50.116;8.424;2022-07-29T16:10:27;6.07;;;2.15;;
22289;SDS011;11313;50.116;8.424;2022-07-29T16:12:53;3.30;;;2.22;;
22289;SDS011;11313;50.116;8.424;2022-07-29T16:15:19;5.50;;;2.28;;
22289;SDS011;11313;50.116;8.424;2022-07-29T16:17:44;4.13;;;2.30;;
22289;SDS011;11313;50.116;8.424;2022-07-29T16:20:10;3.42;;;1.80;;
22289;SDS011;11313;50.116;8.424;2022-07-29T16:22:35;3.35;;;2.00;;
22289;SDS011;11313;50.116;8.424;2022-07-29T16:25:01;3.83;;;2.17;;
22289;SDS011;11313;50.116;8.424;2022-07-29T16:27:27;6.60;;;2.35;;
22289;SDS011;11313;50.116;8.424;2022-07-29T16:29:53;4.47;;;2.15;;
22289;SDS011;11313;50.116;8.424;2022-07-29T16:32:19;3.13;;;1.98;;
22289;SDS011;11313;50.116;8.424;2022-07-29T16:34:45;4.22;;;1.98;;
22289;SDS011;11313;50.116;8.424;2022-07-29T16:37:11;4.95;;;2.15;;
22289;SDS011;11313;50.116;8.424;2022-07-29T16:39:36;5.43;;;2.08;;
22289;SDS011;11313;50.116;8.424;2022-07-29T16:42:02;3.03;;;2.03;;
22289;SDS011;11313;50.116;8.424;2022-07-29T16:44:28;3.70;;;2.00;;
22289;SDS011;11313;50.116;8.424;2022-07-29T16:46:54;4.85;;;2.10;;
22289;SDS011;11313;50.116;8.424;2022-07-29T16:49:19;6.75;;;1.95;;
22289;SDS011;11313;50.116;8.424;2022-07-29T16:51:45;4.60;;;1.85;;
22289;SDS011;11313;50.116;8.424;2022-07-29T16:54:11;7.85;;;2.50;;
22289;SDS011;11313;50.116;8.424;2022-07-29T16:56:37;4.47;;;2.00;;
22289;SDS011;11313;50.116;8.424;2022-07-29T16:59:03;5.80;;;2.25;;
22289;SDS011;11313;50.116;8.424;2022-07-29T17:01:29;7.25;;;2.40;;
22289;SDS011;11313;50.116;8.424;2022-07-29T17:03:54;7.18;;;2.40;;
22289;SDS011;11313;50.116;8.424;2022-07-29T17:06:35;5.95;;;2.30;;
22289;SDS011;11313;50.116;8.424;2022-07-29T17:11:29;8.70;;;2.88;;
22289;SDS011;11313;50.116;8.424;2022-07-29T17:13:54;7.53;;;2.28;;
22289;SDS011;11313;50.116;8.424;2022-07-29T17:16:22;9.20;;;2.60;;
22289;SDS011;11313;50.116;8.424;2022-07-29T17:18:51;11.60;;;3.15;;
22289;SDS011;11313;50.116;8.424;2022-07-29T17:21:18;17.30;;;3.15;;
22289;SDS011;11313;50.116;8.424;2022-07-29T17:23:44;8.75;;;2.70;;
22289;SDS011;11313;50.116;8.424;2022-07-29T17:26:09;4.57;;;2.22;;
22289;SDS011;11313;50.116;8.424;2022-07-29T17:28:35;10.60;;;3.42;;
22289;SDS011;11313;50.116;8.424;2022-07-29T17:31:00;8.65;;;3.20;;
22289;SDS011;11313;50.116;8.424;2022-07-29T17:33:26;15.20;;;2.72;;
22289;SDS011;11313;50.116;8.424;2022-07-29T17:35:51;10.30;;;3.05;;
22289;SDS011;11313;50.116;8.424;2022-07-29T17:38:35;10.93;;;3.00;;
22289;SDS011;11313;50.116;8.424;2022-07-29T17:41:01;7.47;;;2.90;;
22289;SDS011;11313;50.116;8.424;2022-07-29T17:43:27;8.55;;;2.65;;
22289;SDS011;11313;50.116;8.424;2022-07-29T17:45:52;9.80;;;2.88;;
22289;SDS011;11313;50.116;8.424;2022-07-29T17:48:18;7.70;;;2.70;;
22289;SDS011;11313;50.116;8.424;2022-07-29T17:50:44;8.32;;;2.50;;
22289;SDS011;11313;50.116;8.424;2022-07-29T17:53:11;9.23;;;2.40;;
22289;SDS011;11313;50.116;8.424;2022-07-29T17:55:37;11.93;;;2.28;;
22289;SDS011;11313;50.116;8.424;2022-07-29T17:58:03;9.00;;;2.70;;
22289;SDS011;11313;50.116;8.424;2022-07-29T18:00:30;11.82;;;2.85;;
22289;SDS011;11313;50.116;8.424;2022-07-29T18:02:55;7.47;;;2.70;;
22289;SDS011;11313;50.116;8.424;2022-07-29T18:05:21;8.18;;;2.60;;
22289;SDS011;11313;50.116;8.424;2022-07-29T18:07:47;6.22;;;2.65;;
22289;SDS011;11313;50.116;8.424;2022-07-29T18:10:12;7.18;;;2.70;;
22289;SDS011;11313;50.116;8.424;2022-07-29T18:12:38;9.50;;;2.95;;
22289;SDS011;11313;50.116;8.424;2022-07-29T18:15:03;5.90;;;2.65;;
22289;SDS011;11313;50.116;8.424;2022-07-29T18:17:29;4.45;;;2.47;;
22289;SDS011;11313;50.116;8.424;2022-07-29T18:19:55;6.47;;;2.45;;
22289;SDS011;11313;50.116;8.424;2022-07-29T18:22:20;8.40;;;2.83;;
22289;SDS011;11313;50.116;8.424;2022-07-29T18:24:46;8.85;;;2.90;;
22289;SDS011;11313;50.116;8.424;2022-07-29T18:27:12;7.22;;;2.47;;
22289;SDS011;11313;50.116;8.424;2022-07-29T18:29:37;6.10;;;2.80;;
22289;SDS011;11313;50.116;8.424;2022-07-29T18:32:03;4.68;;;2.38;;
22289;SDS011;11313;50.116;8.424;2022-07-29T18:34:29;6.90;;;2.70;;
22289;SDS011;11313;50.116;8.424;2022-07-29T18:36:54;6.45;;;2.42;;
22289;SDS011;11313;50.116;8.424;2022-07-29T18:39:20;7.50;;;2.50;;
22289;SDS011;11313;50.116;8.424;2022-07-29T18:41:45;5.22;;;2.72;;
22289;SDS011;11313;50.116;8.424;2022-07-29T18:44:11;5.22;;;2.22;;
22289;SDS011;11313;50.116;8.424;2022-07-29T18:46:40;8.30;;;2.53;;
22289;SDS011;11313;50.116;8.424;2022-07-29T18:49:06;5.85;;;2.60;;
22289;SDS011;11313;50.116;8.424;2022-07-29T18:51:32;6.68;;;2.80;;
22289;SDS011;11313;50.116;8.424;2022-07-29T18:53:58;6.13;;;2.42;;
22289;SDS011;11313;50.116;8.424;2022-07-29T18:56:23;4.82;;;2.35;;
22289;SDS011;11313;50.116;8.424;2022-07-29T18:58:49;7.55;;;2.90;;
22289;SDS011;11313;50.116;8.424;2022-07-29T19:01:14;6.38;;;2.40;;
22289;SDS011;11313;50.116;8.424;2022-07-29T19:03:40;6.60;;;2.60;;
22289;SDS011;11313;50.116;8.424;2022-07-29T19:06:05;5.95;;;2.47;;
22289;SDS011;11313;50.116;8.424;2022-07-29T19:08:31;4.75;;;2.60;;
22289;SDS011;11313;50.116;8.424;2022-07-29T19:10:56;5.15;;;2.33;;
22289;SDS011;11313;50.116;8.424;2022-07-29T19:13:22;8.18;;;2.55;;
22289;SDS011;11313;50.116;8.424;2022-07-29T19:15:47;6.72;;;2.20;;
22289;SDS011;11313;50.116;8.424;2022-07-29T19:18:13;6.80;;;2.20;;
22289;SDS011;11313;50.116;8.424;2022-07-29T19:20:39;5.25;;;2.38;;
22289;SDS011;11313;50.116;8.424;2022-07-29T19:23:05;5.93;;;2.33;;
22289;SDS011;11313;50.116;8.424;2022-07-29T19:25:32;5.82;;;2.40;;
22289;SDS011;11313;50.116;8.424;2022-07-29T19:27:58;5.40;;;2.40;;
22289;SDS011;11313;50.116;8.424;2022-07-29T19:30:24;4.15;;;2.22;;
22289;SDS011;11313;50.116;8.424;2022-07-29T19:32:50;6.47;;;2.28;;
22289;SDS011;11313;50.116;8.424;2022-07-29T19:35:15;6.68;;;2.55;;
22289;SDS011;11313;50.116;8.424;2022-07-29T19:37:55;6.07;;;2.38;;
22289;SDS011;11313;50.116;8.424;2022-07-29T19:40:22;5.97;;;2.28;;
22289;SDS011;11313;50.116;8.424;2022-07-29T19:42:49;5.65;;;2.38;;
22289;SDS011;11313;50.116;8.424;2022-07-29T19:45:17;5.43;;;2.22;;
22289;SDS011;11313;50.116;8.424;2022-07-29T19:47:44;5.10;;;2.60;;
22289;SDS011;11313;50.116;8.424;2022-07-29T19:50:11;4.35;;;2.38;;
22289;SDS011;11313;50.116;8.424;2022-07-29T19:52:36;4.15;;;2.55;;
22289;SDS011;11313;50.116;8.424;2022-07-29T19:55:02;10.07;;;3.40;;
22289;SDS011;11313;50.116;8.424;2022-07-29T19:57:29;5.88;;;3.13;;
22289;SDS011;11313;50.116;8.424;2022-07-29T19:59:55;7.20;;;3.60;;
22289;SDS011;11313;50.116;8.424;2022-07-29T20:02:20;5.40;;;3.70;;
22289;SDS011;11313;50.116;8.424;2022-07-29T20:04:46;7.75;;;3.70;;
22289;SDS011;11313;50.116;8.424;2022-07-29T20:07:11;5.35;;;3.50;;
22289;SDS011;11313;50.116;8.424;2022-07-29T20:09:37;5.55;;;3.60;;
22289;SDS011;11313;50.116;8.424;2022-07-29T20:12:05;4.78;;;3.67;;
22289;SDS011;11313;50.116;8.424;2022-07-29T20:14:31;4.20;;;3.35;;
22289;SDS011;11313;50.116;8.424;2022-07-29T20:16:57;5.00;;;3.17;;
22289;SDS011;11313;50.116;8.424;2022-07-29T20:19:22;4.85;;;2.80;;
22289;SDS011;11313;50.116;8.424;2022-07-29T20:21:48;4.40;;;3.17;;
22289;SDS011;11313;50.116;8.424;2022-07-29T20:24:15;4.45;;;3.05;;